Terminal Aerodrome Forecast
Issued by NWS

Home | Current Version | Previous Version | Text Only | Print | Product List | Glossary On
Versions: 1 2 3 4 5 6 7 8 9 10 11 12
433
FTUS45 KREV 270520
TAFMMH
TAF
KMMH 270520Z 2706/2806 VRB03KT P6SM SKC
     FM271600 13006KT P6SM SKC
     FM272200 27010G18KT P6SM FEW100
     FM280300 VRB04KT P6SM FEW100=

USA.gov is the U.S. government's official web portal to all federal, state and local government web resources and services.